sensor_id;sensor_type;location;lat;lon;timestamp;temperature;humidity
12089;DHT22;6107;49.078;8.578;2023-06-26T00:02:17;17.20;99.90
12089;DHT22;6107;49.078;8.578;2023-06-26T00:04:43;17.20;99.90
12089;DHT22;6107;49.078;8.578;2023-06-26T00:07:09;16.90;99.90
12089;DHT22;6107;49.078;8.578;2023-06-26T00:09:35;16.90;99.90
12089;DHT22;6107;49.078;8.578;2023-06-26T00:12:00;17.00;99.90
12089;DHT22;6107;49.078;8.578;2023-06-26T00:14:26;17.20;99.90
12089;DHT22;6107;49.078;8.578;2023-06-26T00:16:52;17.20;99.90
12089;DHT22;6107;49.078;8.578;2023-06-26T00:19:18;17.10;99.90
12089;DHT22;6107;49.078;8.578;2023-06-26T00:21:44;16.90;99.90
12089;DHT22;6107;49.078;8.578;2023-06-26T00:24:12;16.80;99.90
12089;DHT22;6107;49.078;8.578;2023-06-26T00:26:38;16.90;99.90
12089;DHT22;6107;49.078;8.578;2023-06-26T00:29:03;17.20;99.90
12089;DHT22;6107;49.078;8.578;2023-06-26T00:31:29;17.50;99.90
12089;DHT22;6107;49.078;8.578;2023-06-26T00:33:54;17.50;99.90
12089;DHT22;6107;49.078;8.578;2023-06-26T00:36:20;17.30;99.90
12089;DHT22;6107;49.078;8.578;2023-06-26T00:38:48;17.20;99.90
12089;DHT22;6107;49.078;8.578;2023-06-26T00:41:13;17.30;99.90
12089;DHT22;6107;49.078;8.578;2023-06-26T00:43:39;17.00;99.90
12089;DHT22;6107;49.078;8.578;2023-06-26T00:46:09;17.00;99.90
12089;DHT22;6107;49.078;8.578;2023-06-26T00:48:36;16.90;99.90
12089;DHT22;6107;49.078;8.578;2023-06-26T00:51:02;16.70;99.90
12089;DHT22;6107;49.078;8.578;2023-06-26T00:53:27;16.70;99.90
12089;DHT22;6107;49.078;8.578;2023-06-26T00:55:54;16.50;99.90
12089;DHT22;6107;49.078;8.578;2023-06-26T00:58:21;16.50;99.90
12089;DHT22;6107;49.078;8.578;2023-06-26T01:00:49;16.40;99.90
12089;DHT22;6107;49.078;8.578;2023-06-26T01:03:14;16.40;99.90
12089;DHT22;6107;49.078;8.578;2023-06-26T01:05:40;16.40;99.90
12089;DHT22;6107;49.078;8.578;2023-06-26T01:08:07;16.30;99.90
12089;DHT22;6107;49.078;8.578;2023-06-26T01:10:33;16.40;99.90
12089;DHT22;6107;49.078;8.578;2023-06-26T01:12:59;16.70;99.90
12089;DHT22;6107;49.078;8.578;2023-06-26T01:15:25;16.50;99.90
12089;DHT22;6107;49.078;8.578;2023-06-26T01:17:51;16.30;99.90
12089;DHT22;6107;49.078;8.578;2023-06-26T01:20:17;16.10;99.90
12089;DHT22;6107;49.078;8.578;2023-06-26T01:28:41;16.30;99.90
12089;DHT22;6107;49.078;8.578;2023-06-26T01:31:07;16.60;99.90
12089;DHT22;6107;49.078;8.578;2023-06-26T01:33:34;16.80;99.90
12089;DHT22;6107;49.078;8.578;2023-06-26T01:36:00;16.60;99.90
12089;DHT22;6107;49.078;8.578;2023-06-26T01:38:26;16.40;99.90
12089;DHT22;6107;49.078;8.578;2023-06-26T01:40:52;16.20;99.90
12089;DHT22;6107;49.078;8.578;2023-06-26T01:43:47;16.10;99.90
12089;DHT22;6107;49.078;8.578;2023-06-26T01:46:25;16.20;99.90
12089;DHT22;6107;49.078;8.578;2023-06-26T01:49:03;16.30;99.90
12089;DHT22;6107;49.078;8.578;2023-06-26T01:51:34;16.20;99.90
12089;DHT22;6107;49.078;8.578;2023-06-26T01:54:01;16.10;99.90
12089;DHT22;6107;49.078;8.578;2023-06-26T01:56:28;15.80;99.90
12089;DHT22;6107;49.078;8.578;2023-06-26T01:58:55;15.70;99.90
12089;DHT22;6107;49.078;8.578;2023-06-26T02:01:21;15.70;99.90
12089;DHT22;6107;49.078;8.578;2023-06-26T02:03:47;15.60;99.90
12089;DHT22;6107;49.078;8.578;2023-06-26T02:06:13;15.60;99.90
12089;DHT22;6107;49.078;8.578;2023-06-26T02:08:39;15.50;99.90
12089;DHT22;6107;49.078;8.578;2023-06-26T02:11:05;15.40;99.90
12089;DHT22;6107;49.078;8.578;2023-06-26T02:13:30;15.50;99.90
12089;DHT22;6107;49.078;8.578;2023-06-26T02:15:56;15.40;99.90
12089;DHT22;6107;49.078;8.578;2023-06-26T02:18:22;15.30;99.90
12089;DHT22;6107;49.078;8.578;2023-06-26T02:20:48;15.70;99.90
12089;DHT22;6107;49.078;8.578;2023-06-26T02:23:14;15.60;99.90
12089;DHT22;6107;49.078;8.578;2023-06-26T02:25:40;15.60;99.90
12089;DHT22;6107;49.078;8.578;2023-06-26T02:28:05;15.60;99.90
12089;DHT22;6107;49.078;8.578;2023-06-26T02:30:31;15.40;99.90
12089;DHT22;6107;49.078;8.578;2023-06-26T02:32:56;15.40;99.90
12089;DHT22;6107;49.078;8.578;2023-06-26T02:35:22;15.40;99.90
12089;DHT22;6107;49.078;8.578;2023-06-26T02:37:47;15.40;99.90
12089;DHT22;6107;49.078;8.578;2023-06-26T02:40:13;15.30;99.90
12089;DHT22;6107;49.078;8.578;2023-06-26T02:42:38;15.20;99.90
12089;DHT22;6107;49.078;8.578;2023-06-26T02:45:04;15.40;99.90
12089;DHT22;6107;49.078;8.578;2023-06-26T02:47:30;15.40;99.90
12089;DHT22;6107;49.078;8.578;2023-06-26T02:49:55;15.40;99.90
12089;DHT22;6107;49.078;8.578;2023-06-26T02:52:21;15.30;99.90
12089;DHT22;6107;49.078;8.578;2023-06-26T02:54:46;15.30;99.90
12089;DHT22;6107;49.078;8.578;2023-06-26T02:57:12;15.40;99.90
12089;DHT22;6107;49.078;8.578;2023-06-26T02:59:40;15.50;99.90
12089;DHT22;6107;49.078;8.578;2023-06-26T03:02:05;15.30;99.90
12089;DHT22;6107;49.078;8.578;2023-06-26T03:04:31;15.10;99.90
12089;DHT22;6107;49.078;8.578;2023-06-26T03:06:56;15.20;99.90
12089;DHT22;6107;49.078;8.578;2023-06-26T03:09:22;15.10;99.90
12089;DHT22;6107;49.078;8.578;2023-06-26T03:11:47;15.00;99.90
12089;DHT22;6107;49.078;8.578;2023-06-26T03:14:13;15.10;99.90
12089;DHT22;6107;49.078;8.578;2023-06-26T03:16:39;15.10;99.90
12089;DHT22;6107;49.078;8.578;2023-06-26T03:19:05;15.00;99.90
12089;DHT22;6107;49.078;8.578;2023-06-26T03:21:31;14.90;99.90
12089;DHT22;6107;49.078;8.578;2023-06-26T03:23:57;14.90;99.90
12089;DHT22;6107;49.078;8.578;2023-06-26T03:26:22;14.90;99.90
12089;DHT22;6107;49.078;8.578;2023-06-26T03:28:53;14.90;99.90
12089;DHT22;6107;49.078;8.578;2023-06-26T03:31:19;14.90;99.90
12089;DHT22;6107;49.078;8.578;2023-06-26T03:33:44;14.80;99.90
12089;DHT22;6107;49.078;8.578;2023-06-26T03:36:10;14.80;99.90
12089;DHT22;6107;49.078;8.578;2023-06-26T03:38:36;14.70;99.90
12089;DHT22;6107;49.078;8.578;2023-06-26T03:41:02;14.90;99.90
12089;DHT22;6107;49.078;8.578;2023-06-26T03:43:27;15.00;99.90
12089;DHT22;6107;49.078;8.578;2023-06-26T03:45:53;15.10;99.90
12089;DHT22;6107;49.078;8.578;2023-06-26T03:48:19;15.10;99.90
12089;DHT22;6107;49.078;8.578;2023-06-26T03:50:45;15.00;99.90
12089;DHT22;6107;49.078;8.578;2023-06-26T03:53:10;14.80;99.90
12089;DHT22;6107;49.078;8.578;2023-06-26T03:55:37;14.90;99.90
12089;DHT22;6107;49.078;8.578;2023-06-26T03:58:04;14.90;99.90
12089;DHT22;6107;49.078;8.578;2023-06-26T04:00:30;14.90;99.90
12089;DHT22;6107;49.078;8.578;2023-06-26T04:02:55;15.00;99.90
12089;DHT22;6107;49.078;8.578;2023-06-26T04:05:22;15.10;99.90
12089;DHT22;6107;49.078;8.578;2023-06-26T04:07:52;15.30;99.90
12089;DHT22;6107;49.078;8.578;2023-06-26T04:10:17;15.40;99.90
12089;DHT22;6107;49.078;8.578;2023-06-26T04:12:43;15.50;99.90
12089;DHT22;6107;49.078;8.578;2023-06-26T04:15:09;15.50;99.90
12089;DHT22;6107;49.078;8.578;2023-06-26T04:17:34;15.50;99.90
12089;DHT22;6107;49.078;8.578;2023-06-26T04:20:00;15.60;99.90
12089;DHT22;6107;49.078;8.578;2023-06-26T04:22:25;15.70;99.90
12089;DHT22;6107;49.078;8.578;2023-06-26T04:24:51;15.80;99.90
12089;DHT22;6107;49.078;8.578;2023-06-26T04:27:17;15.80;99.90
12089;DHT22;6107;49.078;8.578;2023-06-26T04:29:43;15.90;99.90
12089;DHT22;6107;49.078;8.578;2023-06-26T04:32:09;16.10;99.90
12089;DHT22;6107;49.078;8.578;2023-06-26T04:34:34;16.20;99.90
12089;DHT22;6107;49.078;8.578;2023-06-26T04:37:01;16.30;99.90
12089;DHT22;6107;49.078;8.578;2023-06-26T04:39:29;16.60;99.90
12089;DHT22;6107;49.078;8.578;2023-06-26T04:44:26;16.80;99.90
12089;DHT22;6107;49.078;8.578;2023-06-26T04:46:52;16.90;99.90
12089;DHT22;6107;49.078;8.578;2023-06-26T04:49:17;17.10;99.90
12089;DHT22;6107;49.078;8.578;2023-06-26T04:51:44;17.20;99.90
12089;DHT22;6107;49.078;8.578;2023-06-26T04:54:12;17.20;99.90
12089;DHT22;6107;49.078;8.578;2023-06-26T04:56:38;17.30;99.90
12089;DHT22;6107;49.078;8.578;2023-06-26T04:59:05;17.50;99.90
12089;DHT22;6107;49.078;8.578;2023-06-26T05:01:31;17.60;99.90
12089;DHT22;6107;49.078;8.578;2023-06-26T05:06:23;18.10;99.90
12089;DHT22;6107;49.078;8.578;2023-06-26T05:08:49;18.00;99.90
12089;DHT22;6107;49.078;8.578;2023-06-26T07:10:43;24.00;99.90
12089;DHT22;6107;49.078;8.578;2023-06-26T07:13:08;24.00;99.90
12089;DHT22;6107;49.078;8.578;2023-06-26T07:15:34;24.10;99.90
12089;DHT22;6107;49.078;8.578;2023-06-26T07:17:59;24.30;99.90
12089;DHT22;6107;49.078;8.578;2023-06-26T07:20:25;24.40;99.90
12089;DHT22;6107;49.078;8.578;2023-06-26T07:22:50;24.50;99.90
12089;DHT22;6107;49.078;8.578;2023-06-26T07:25:16;24.50;99.90
12089;DHT22;6107;49.078;8.578;2023-06-26T07:27:41;24.70;99.90
12089;DHT22;6107;49.078;8.578;2023-06-26T07:30:08;24.80;99.90
12089;DHT22;6107;49.078;8.578;2023-06-26T07:32:37;25.00;99.90
12089;DHT22;6107;49.078;8.578;2023-06-26T07:35:02;25.10;99.90
12089;DHT22;6107;49.078;8.578;2023-06-26T07:37:28;25.30;99.90
12089;DHT22;6107;49.078;8.578;2023-06-26T07:39:54;25.40;99.90
12089;DHT22;6107;49.078;8.578;2023-06-26T12:54:38;30.90;99.90
12089;DHT22;6107;49.078;8.578;2023-06-26T13:04:22;31.00;99.90
